Nearby METAR Reports

 

YMER - Merimbula Arpt, Australia
Distance from station: SE 12km
Updated: Sun, 08-Dec-2019 9:00pm AEDT
Overcast
Overcast
 Wind from NNE
Wind: NNE 11 km/h
Temperature: 17°C
Dew Point: 12°C
Humidity: 73%
Barometer: 1021 hPa
Clouds: Overcast
Visibility: 10 km
Cloud details: Overcast 945 m
2019/12/08 10:00 YMER 081000Z AUTO 02006KT 9999 // OVC031 17/12 Q1021
YCOM - Cooma Snowy Mtns, Australia
Distance from station: NW 96km
Updated: Sun, 08-Dec-2019 9:30pm AEDT
Overcast
Overcast
 Wind from NE
Wind: NE 13 km/h
Temperature: 13°C
Dew Point: 11°C
Humidity: 88%
Barometer: 1022 hPa
Clouds: Overcast
Visibility: 5 km
Cloud details: Overcast 975 m
2019/12/08 10:30 YCOM 081030Z AUTO 04007KT 5000 // OVC032 13/11 Q1022
 
YSCB - Canberra (civ/Mi, Australia
Distance from station: NNW 182km
Updated: Sun, 08-Dec-2019 9:30pm AEDT
Haze, Overcast
Haze, Overcast
 Wind from ESE
Wind: ESE 17 km/h
Temperature: 17°C
Dew Point: 13°C
Humidity: 77%
Barometer: 1022 hPa
Summary: Haze
Clouds: Overcast
Visibility: 5 km
Cloud details: Overcast 518 m
2019/12/08 10:30 YSCB 081030Z AUTO 11009KT 4500 HZ OVC017 17/13 Q1022
YSNW - Nowra (aus-Navy), Australia
Distance from station: NNE 219km
Updated: Sun, 08-Dec-2019 9:00pm AEDT
Overcast
Overcast
 Wind from ENE
Wind: ENE 15 km/h
Temperature: 20°C
Dew Point: 15°C
Humidity: 73%
Barometer: 1021 hPa
Clouds: Overcast
Visibility: 10 km
Cloud details: Overcast 945 m
2019/12/08 10:00 YSNW 081000Z AUTO 06008KT 9999 // OVC031 20/15 Q1021
 
YMAY - Albury Airport, Australia
Distance from station: WNW 271km
Updated: Sun, 08-Dec-2019 9:00pm AEDT
Clear
Clear
 Wind from calm
Wind: Calm
Temperature: 25°C
Dew Point: 5°C
Humidity: 28%
Barometer: 1016 hPa
Clouds: Clear
Visibility: 10 km
2019/12/08 10:00 YMAY 081000Z AUTO 00000KT 9999 // NCD 25/05 Q1016
YSWG - Wagga Wagga(Cv/M, Australia
Distance from station: NW 283km
Updated: Sun, 08-Dec-2019 9:00pm AEDT
Clear
Clear
 Wind from SSW
Wind: SSW 7 km/h
Temperature: 25°C
Dew Point: -1°C
Humidity: 18%
Barometer: 1016 hPa
Clouds: Clear
Visibility: 10 km
2019/12/08 10:00 YSWG 081000Z AUTO 21004KT 9999 // NCD 25/M01 Q1016
 
YWGT - Wangaratta Arp, Australia
Distance from station: W 317km
Updated: Sun, 08-Dec-2019 9:00pm AEDT
Clear
Clear
 Wind from SW
Wind: SW 7 km/h
Temperature: 22°C
Dew Point: 3°C
Humidity: 29%
Barometer: 1015 hPa
Clouds: Clear
Visibility: 10 km
2019/12/08 10:00 YWGT 081000Z AUTO 22004KT 9999 // NCD 22/03 Q1015
YSSY - Sydney Intl Airp, Australia
Distance from station: NNE 343km
Updated: Sun, 08-Dec-2019 9:30pm AEDT
Few Clouds
Few Clouds
 Wind from NE
Wind: NE 17 km/h
Temperature: 22°C
Dew Point: 15°C
Humidity: 65%
Barometer: 1021 hPa
Clouds: Few Clouds
Visibility: 10 km
Cloud details: Few Clouds 762 m
2019/12/08 10:30 YSSY 081030Z 04009KT 9999 FEW025 22/15 Q1021 NOSIG